createdAt,value
2022-08-23T00:00:46.997Z,22.80
2022-08-23T00:01:52.467Z,22.80
2022-08-23T00:02:56.242Z,22.70
2022-08-23T00:04:01.303Z,22.90
2022-08-23T00:05:08.829Z,22.80
2022-08-23T00:06:11.836Z,22.70
2022-08-23T00:07:15.093Z,22.70
2022-08-23T00:08:19.681Z,22.70
2022-08-23T00:09:23.631Z,22.70
2022-08-23T00:10:25.553Z,22.70
2022-08-23T00:11:39.933Z,22.70
2022-08-23T00:12:43.654Z,22.70
2022-08-23T00:13:48.133Z,22.70
2022-08-23T00:14:55.609Z,22.60
2022-08-23T00:16:00.548Z,22.60
2022-08-23T00:17:02.879Z,22.60
2022-08-23T00:18:04.906Z,22.60
2022-08-23T00:19:08.375Z,22.60
2022-08-23T00:20:15.699Z,22.60
2022-08-23T00:21:17.679Z,22.70
2022-08-23T00:22:19.394Z,22.60
2022-08-23T00:23:21.956Z,22.50
2022-08-23T00:24:27.065Z,22.50
2022-08-23T00:25:28.830Z,22.50
2022-08-23T00:26:50.940Z,22.50
2022-08-23T00:27:52.928Z,22.50
2022-08-23T00:28:54.720Z,22.50
2022-08-23T00:29:57.417Z,22.50
2022-08-23T00:30:59.862Z,22.40
2022-08-23T00:32:02.093Z,22.40
2022-08-23T00:33:04.667Z,22.40
2022-08-23T00:34:06.552Z,22.40
2022-08-23T00:35:10.297Z,22.40
2022-08-23T00:36:12.280Z,22.40
2022-08-23T00:37:17.488Z,22.40
2022-08-23T00:38:34.388Z,22.40
2022-08-23T00:39:38.137Z,22.40
2022-08-23T00:40:39.948Z,22.40
2022-08-23T00:41:42.020Z,22.30
2022-08-23T00:43:09.915Z,22.30
2022-08-23T00:44:57.016Z,22.30
2022-08-23T00:46:32.804Z,22.50
2022-08-23T00:47:41.387Z,22.30
2022-08-23T00:48:45.961Z,22.30
2022-08-23T00:49:55.196Z,22.40
2022-08-23T00:51:16.090Z,22.20
2022-08-23T00:52:22.976Z,22.20
2022-08-23T00:53:29.024Z,22.30
2022-08-23T00:54:32.112Z,22.20
2022-08-23T00:55:35.119Z,22.20
2022-08-23T00:56:39.374Z,22.20
2022-08-23T00:57:42.496Z,22.10
2022-08-23T00:58:49.575Z,22.10
2022-08-23T00:59:51.353Z,22.10
2022-08-23T01:00:55.307Z,22.10
2022-08-23T01:01:57.790Z,22.10
2022-08-23T01:02:59.922Z,22.10
2022-08-23T01:04:04.782Z,22.10
2022-08-23T01:05:07.881Z,22.10
2022-08-23T01:06:18.739Z,22.10
2022-08-23T01:07:41.718Z,22.10
2022-08-23T01:08:49.452Z,22.10
2022-08-23T01:09:55.395Z,22.10
2022-08-23T01:11:08.844Z,22.10
2022-08-23T01:12:32.243Z,22.00
2022-08-23T01:13:47.046Z,22.00
2022-08-23T01:14:58.489Z,22.00
2022-08-23T01:16:09.731Z,22.00
2022-08-23T01:17:29.361Z,21.90
2022-08-23T01:18:32.533Z,21.90
2022-08-23T01:19:46.663Z,22.00
2022-08-23T01:20:56.389Z,21.90
2022-08-23T01:24:18.060Z,21.90
2022-08-23T01:25:34.882Z,21.90
2022-08-23T01:26:36.963Z,21.80
2022-08-23T01:27:40.196Z,21.80
2022-08-23T01:28:45.903Z,21.80
2022-08-23T01:29:47.800Z,21.80
2022-08-23T01:30:49.723Z,21.80
2022-08-23T01:31:52.066Z,21.80
2022-08-23T01:32:58.699Z,21.80
2022-08-23T01:34:11.294Z,21.80
2022-08-23T01:35:14.443Z,21.80
2022-08-23T01:36:17.188Z,21.80
2022-08-23T01:37:21.174Z,22.00
2022-08-23T01:38:24.302Z,21.80
2022-08-23T01:39:26.037Z,21.80
2022-08-23T01:40:28.050Z,21.80
2022-08-23T01:41:29.942Z,21.90
2022-08-23T01:42:31.871Z,21.80
2022-08-23T01:43:33.693Z,21.80
2022-08-23T01:44:35.612Z,21.80
2022-08-23T01:45:37.521Z,21.80
2022-08-23T01:46:46.133Z,21.80
2022-08-23T01:47:48.069Z,21.80
2022-08-23T01:48:54.757Z,21.80
2022-08-23T01:49:57.075Z,21.80
2022-08-23T01:51:00.136Z,21.80
2022-08-23T01:52:01.987Z,21.80
2022-08-23T01:53:04.339Z,21.80
2022-08-23T01:54:06.485Z,21.80
2022-08-23T01:55:10.603Z,21.80
2022-08-23T01:56:14.219Z,21.80
2022-08-23T01:57:16.114Z,21.70
2022-08-23T01:58:17.860Z,21.70
2022-08-23T01:59:19.833Z,21.70
2022-08-23T02:00:25.261Z,21.70
2022-08-23T02:01:28.474Z,21.80
2022-08-23T02:02:30.214Z,21.70
2022-08-23T02:03:33.283Z,21.60
2022-08-23T02:04:36.089Z,21.60
2022-08-23T02:05:40.585Z,21.60
2022-08-23T02:06:42.317Z,21.60
2022-08-23T02:07:44.411Z,21.60
2022-08-23T02:09:03.554Z,21.60
2022-08-23T02:10:11.804Z,21.70
2022-08-23T02:11:19.303Z,21.60
2022-08-23T02:12:21.306Z,21.60
2022-08-23T02:13:23.470Z,21.60
2022-08-23T02:14:28.153Z,21.60
2022-08-23T02:15:32.720Z,21.60
2022-08-23T02:16:53.690Z,21.60
2022-08-23T02:18:06.604Z,21.60
2022-08-23T02:19:11.762Z,21.60
2022-08-23T02:20:14.352Z,21.60
2022-08-23T02:21:16.365Z,21.60
2022-08-23T02:22:19.166Z,21.60
2022-08-23T02:23:22.934Z,21.60
2022-08-23T02:24:26.049Z,21.50
2022-08-23T02:25:27.824Z,21.50
2022-08-23T02:26:30.951Z,21.50
2022-08-23T02:27:33.282Z,21.50
2022-08-23T02:28:37.083Z,21.50
2022-08-23T02:29:39.391Z,21.50
2022-08-23T02:30:41.644Z,21.50
2022-08-23T02:31:48.997Z,21.50
2022-08-23T02:32:51.978Z,21.50
2022-08-23T02:36:33.085Z,21.60
2022-08-23T02:37:36.539Z,21.50
2022-08-23T02:38:38.511Z,21.40
2022-08-23T02:39:42.332Z,21.40
2022-08-23T02:40:44.813Z,21.50
2022-08-23T02:41:46.928Z,21.40
2022-08-23T02:42:49.072Z,21.40
2022-08-23T02:43:54.558Z,21.40
2022-08-23T02:44:56.657Z,21.40
2022-08-23T02:45:58.554Z,21.40
2022-08-23T02:47:01.834Z,21.40
2022-08-23T02:48:04.964Z,21.40
2022-08-23T02:49:07.178Z,21.40
2022-08-23T02:50:09.858Z,21.40
2022-08-23T02:51:12.128Z,21.40
2022-08-23T02:52:14.016Z,21.40
2022-08-23T02:53:17.499Z,21.40
2022-08-23T02:54:19.415Z,21.40
2022-08-23T02:55:22.688Z,21.40
2022-08-23T02:56:24.524Z,21.40
2022-08-23T02:57:27.262Z,21.40
2022-08-23T02:58:32.005Z,21.40
2022-08-23T02:59:34.564Z,21.30
2022-08-23T03:00:38.821Z,21.30
2022-08-23T03:01:40.873Z,21.30
2022-08-23T03:02:43.506Z,21.40
2022-08-23T03:03:45.863Z,21.30
2022-08-23T03:04:50.496Z,21.30
2022-08-23T03:05:52.605Z,21.20
2022-08-23T03:06:55.006Z,21.20
2022-08-23T03:07:57.115Z,21.20
2022-08-23T03:09:00.026Z,21.20
2022-08-23T03:10:02.724Z,21.10
2022-08-23T03:11:11.957Z,21.10
2022-08-23T03:12:13.951Z,21.20
2022-08-23T03:13:16.365Z,21.10
2022-08-23T03:14:18.202Z,21.10
2022-08-23T03:15:20.286Z,21.10
2022-08-23T03:16:23.550Z,21.10
2022-08-23T03:17:25.800Z,21.10
2022-08-23T03:18:27.506Z,21.10
2022-08-23T03:19:29.499Z,21.10
2022-08-23T03:20:31.404Z,21.10
2022-08-23T03:21:33.307Z,21.10
2022-08-23T03:22:37.885Z,21.10
2022-08-23T03:23:40.869Z,21.10
2022-08-23T03:24:42.801Z,21.00
2022-08-23T03:25:44.559Z,21.10
2022-08-23T03:26:48.409Z,21.00
2022-08-23T03:27:50.301Z,21.10
2022-08-23T03:28:52.441Z,21.00
2022-08-23T03:29:55.559Z,21.00
2022-08-23T03:30:57.699Z,21.00
2022-08-23T03:31:59.956Z,21.00
2022-08-23T03:33:02.111Z,21.00
2022-08-23T03:34:05.455Z,21.00
2022-08-23T03:35:15.097Z,21.00
2022-08-23T03:36:17.782Z,21.00
2022-08-23T03:37:19.780Z,21.00
2022-08-23T03:38:21.489Z,21.00
2022-08-23T03:39:23.686Z,20.90
2022-08-23T03:40:26.100Z,20.90
2022-08-23T03:41:27.835Z,20.90
2022-08-23T03:42:31.280Z,20.90
2022-08-23T03:43:33.046Z,20.90
2022-08-23T03:44:34.898Z,20.90
2022-08-23T03:45:36.962Z,20.90
2022-08-23T03:46:39.132Z,20.80
2022-08-23T03:47:40.751Z,20.80
2022-08-23T03:48:42.702Z,20.70
2022-08-23T03:49:44.385Z,20.70
2022-08-23T03:50:46.326Z,20.70
2022-08-23T03:51:48.056Z,20.60
2022-08-23T03:52:49.994Z,20.60
2022-08-23T03:53:52.841Z,20.70
2022-08-23T03:55:00.537Z,20.70
2022-08-23T03:56:02.488Z,20.70
2022-08-23T03:57:07.216Z,20.70
2022-08-23T03:58:09.044Z,20.60
2022-08-23T03:59:11.636Z,20.70
2022-08-23T04:00:20.458Z,20.70
2022-08-23T04:01:28.437Z,20.70
2022-08-23T04:02:30.852Z,20.70
2022-08-23T04:03:34.551Z,20.70
2022-08-23T04:04:37.784Z,20.60
2022-08-23T04:05:39.449Z,20.60
2022-08-23T04:06:41.670Z,20.70
2022-08-23T04:07:43.755Z,20.60
2022-08-23T04:08:45.828Z,20.60
2022-08-23T04:09:50.860Z,20.60
2022-08-23T04:10:55.152Z,20.70
2022-08-23T04:11:57.950Z,20.70
2022-08-23T04:12:59.713Z,20.60
2022-08-23T04:14:01.628Z,20.60
2022-08-23T04:15:04.858Z,20.60
2022-08-23T04:16:07.162Z,20.60
2022-08-23T04:17:08.837Z,20.60
2022-08-23T04:18:12.830Z,20.60
2022-08-23T04:19:15.444Z,20.60
2022-08-23T04:20:17.811Z,20.80
2022-08-23T04:21:22.458Z,20.60
2022-08-23T04:22:24.779Z,20.60
2022-08-23T04:23:27.978Z,20.60
2022-08-23T04:24:30.329Z,20.60
2022-08-23T04:25:35.497Z,20.50
2022-08-23T04:26:37.651Z,20.60
2022-08-23T04:27:39.495Z,20.50
2022-08-23T04:28:41.555Z,20.50
2022-08-23T04:29:46.101Z,20.50
2022-08-23T04:30:48.391Z,20.50
2022-08-23T04:31:51.800Z,20.50
2022-08-23T04:32:55.803Z,20.50
2022-08-23T04:33:57.897Z,20.50
2022-08-23T04:35:04.574Z,20.50
2022-08-23T04:36:06.600Z,20.50
2022-08-23T04:37:12.611Z,20.50
2022-08-23T04:38:24.371Z,20.50
2022-08-23T04:39:27.463Z,20.50
2022-08-23T04:40:47.664Z,20.40
2022-08-23T04:42:10.213Z,20.50
2022-08-23T04:43:14.925Z,20.40
2022-08-23T04:44:17.293Z,20.40
2022-08-23T04:45:19.092Z,20.40
2022-08-23T04:46:20.917Z,20.40
2022-08-23T04:47:31.687Z,20.30
2022-08-23T04:48:34.012Z,20.40
2022-08-23T04:49:35.877Z,20.30
2022-08-23T04:50:37.630Z,20.40
2022-08-23T04:51:39.417Z,20.40
2022-08-23T04:52:41.418Z,20.40
2022-08-23T04:53:43.539Z,20.40
2022-08-23T04:54:46.736Z,20.40
2022-08-23T04:55:49.270Z,20.40
2022-08-23T04:56:51.945Z,20.40
2022-08-23T04:57:55.047Z,20.40
2022-08-23T04:58:57.487Z,20.40
2022-08-23T04:59:59.888Z,20.40
2022-08-23T05:01:05.119Z,20.40
2022-08-23T05:02:07.513Z,20.30
2022-08-23T05:03:10.651Z,20.40
2022-08-23T05:04:12.451Z,20.40
2022-08-23T05:05:14.703Z,20.40
2022-08-23T05:06:17.028Z,20.40
2022-08-23T05:07:19.395Z,20.40
2022-08-23T05:08:22.677Z,20.40
2022-08-23T05:09:25.405Z,20.40
2022-08-23T05:10:28.863Z,20.40
2022-08-23T05:11:30.743Z,20.40
2022-08-23T05:12:32.504Z,20.40
2022-08-23T05:13:35.112Z,20.40
2022-08-23T05:14:37.515Z,20.40
2022-08-23T05:15:40.855Z,20.50
2022-08-23T05:16:42.630Z,20.30
2022-08-23T05:17:44.521Z,20.30
2022-08-23T05:18:46.682Z,20.30
2022-08-23T05:19:48.592Z,20.20
2022-08-23T05:20:50.629Z,20.20
2022-08-23T05:21:56.802Z,20.20
2022-08-23T05:23:01.634Z,20.20
2022-08-23T05:24:03.924Z,20.20
2022-08-23T05:25:06.107Z,20.20
2022-08-23T05:26:08.335Z,20.20
2022-08-23T05:27:13.492Z,20.20
2022-08-23T05:28:22.445Z,20.20
2022-08-23T05:29:24.789Z,20.20
2022-08-23T05:30:29.176Z,20.30
2022-08-23T05:31:33.247Z,20.40
2022-08-23T05:32:35.136Z,20.30
2022-08-23T05:33:38.054Z,20.30
2022-08-23T05:34:40.241Z,20.40
2022-08-23T05:35:42.247Z,20.50
2022-08-23T05:36:48.105Z,20.40
2022-08-23T05:37:59.754Z,20.50
2022-08-23T05:39:03.256Z,20.50
2022-08-23T05:40:05.501Z,20.50
2022-08-23T05:41:09.856Z,20.60
2022-08-23T05:42:14.929Z,20.70
2022-08-23T05:43:19.448Z,20.70
2022-08-23T05:44:21.487Z,20.80
2022-08-23T05:45:23.646Z,20.80
2022-08-23T05:46:28.332Z,20.90
2022-08-23T05:47:32.748Z,21.00
2022-08-23T05:48:37.121Z,21.00
2022-08-23T05:49:40.455Z,21.10
2022-08-23T05:50:42.669Z,21.10
2022-08-23T05:51:44.451Z,21.20
2022-08-23T05:52:53.132Z,21.30
2022-08-23T05:54:13.531Z,21.30
2022-08-23T05:55:15.442Z,21.20
2022-08-23T05:56:27.498Z,21.20
2022-08-23T05:57:29.448Z,21.20
2022-08-23T05:58:31.197Z,21.20
2022-08-23T05:59:33.099Z,21.20
2022-08-23T06:00:37.385Z,21.20
2022-08-23T06:01:42.017Z,21.30
2022-08-23T06:02:44.604Z,21.30
2022-08-23T06:03:47.523Z,21.40
2022-08-23T06:04:50.992Z,21.30
2022-08-23T06:05:59.109Z,21.30
2022-08-23T06:07:00.930Z,21.30
2022-08-23T06:08:03.197Z,21.20
2022-08-23T06:09:08.404Z,21.20
2022-08-23T06:10:16.218Z,21.20
2022-08-23T06:11:25.006Z,21.20
2022-08-23T06:12:28.514Z,21.20
2022-08-23T06:13:31.169Z,21.20
2022-08-23T06:14:33.120Z,21.30
2022-08-23T06:15:34.852Z,21.30
2022-08-23T06:16:44.490Z,21.30
2022-08-23T06:17:47.224Z,21.30
2022-08-23T06:18:49.541Z,21.30
2022-08-23T06:19:51.414Z,21.30
2022-08-23T06:21:05.549Z,21.40
2022-08-23T06:22:07.257Z,21.40
2022-08-23T06:23:09.110Z,21.40
2022-08-23T06:24:14.829Z,21.30
2022-08-23T06:25:16.549Z,21.40
2022-08-23T06:26:28.068Z,21.40
2022-08-23T06:27:29.782Z,21.40
2022-08-23T06:28:32.127Z,21.50
2022-08-23T06:29:34.011Z,21.50
2022-08-23T06:30:39.831Z,21.50
2022-08-23T06:31:48.011Z,21.70
2022-08-23T06:32:50.732Z,21.70
2022-08-23T06:33:53.678Z,21.60
2022-08-23T06:35:14.740Z,21.60
2022-08-23T06:36:18.564Z,21.60
2022-08-23T06:37:20.369Z,21.60
2022-08-23T06:38:23.021Z,21.60
2022-08-23T06:39:29.731Z,21.60
2022-08-23T06:40:31.412Z,21.60
2022-08-23T06:41:33.818Z,21.70
2022-08-23T06:42:38.074Z,21.70
2022-08-23T06:43:41.097Z,21.70
2022-08-23T06:44:42.808Z,21.70
2022-08-23T06:45:44.621Z,21.80
2022-08-23T06:46:57.057Z,21.80
2022-08-23T06:47:58.780Z,21.80
2022-08-23T06:49:01.539Z,21.80
2022-08-23T06:50:04.716Z,22.00
2022-08-23T06:51:27.544Z,21.90
2022-08-23T06:52:29.600Z,21.90
2022-08-23T06:53:31.913Z,21.90
2022-08-23T06:54:36.312Z,21.90
2022-08-23T06:55:38.682Z,21.90
2022-08-23T06:56:42.895Z,21.90
2022-08-23T06:57:44.986Z,22.00
2022-08-23T06:58:47.036Z,22.00
2022-08-23T06:59:51.474Z,22.00
2022-08-23T07:00:57.184Z,22.00
2022-08-23T07:02:05.747Z,22.10
2022-08-23T07:03:07.728Z,22.10
2022-08-23T07:04:12.644Z,22.20
2022-08-23T07:05:14.328Z,22.10
2022-08-23T07:06:16.849Z,22.30
2022-08-23T07:07:19.229Z,22.20
2022-08-23T07:08:21.152Z,22.20
2022-08-23T07:09:23.560Z,22.10
2022-08-23T07:10:25.442Z,22.20
2022-08-23T07:11:31.506Z,22.20
2022-08-23T07:12:35.171Z,22.20
2022-08-23T07:13:36.847Z,22.20
2022-08-23T07:14:39.433Z,22.30
2022-08-23T07:15:41.081Z,22.30
2022-08-23T07:16:49.848Z,22.30
2022-08-23T07:17:51.585Z,22.40
2022-08-23T07:18:55.540Z,22.40
2022-08-23T07:19:58.447Z,22.40
2022-08-23T07:21:03.234Z,22.40
2022-08-23T07:22:06.619Z,22.40
2022-08-23T07:23:08.368Z,22.40
2022-08-23T07:24:10.576Z,22.60
2022-08-23T07:25:12.263Z,22.50
2022-08-23T07:26:16.926Z,22.70
2022-08-23T07:27:18.751Z,22.60
2022-08-23T07:28:20.498Z,22.60
2022-08-23T07:29:23.409Z,22.70
2022-08-23T07:30:25.595Z,22.70
2022-08-23T07:31:33.364Z,22.70
2022-08-23T07:32:35.477Z,22.80
2022-08-23T07:33:38.461Z,22.90
2022-08-23T07:34:41.176Z,22.80
2022-08-23T07:35:52.168Z,22.90
2022-08-23T07:36:54.533Z,22.90
2022-08-23T07:37:57.535Z,23.10
2022-08-23T07:39:00.383Z,23.00
2022-08-23T07:40:02.164Z,23.00
2022-08-23T07:41:04.365Z,23.00
2022-08-23T07:42:08.332Z,23.10
2022-08-23T07:43:25.683Z,23.10
2022-08-23T07:44:29.915Z,23.20
2022-08-23T07:45:35.758Z,23.20
2022-08-23T07:46:40.952Z,23.20
2022-08-23T07:47:46.830Z,23.20
2022-08-23T07:48:54.600Z,23.30
2022-08-23T07:49:56.738Z,23.30
2022-08-23T07:51:02.170Z,23.30
2022-08-23T07:52:04.343Z,23.40
2022-08-23T07:53:08.102Z,23.40
2022-08-23T07:54:25.767Z,23.40
2022-08-23T07:55:27.991Z,23.40
2022-08-23T07:56:29.733Z,23.50
2022-08-23T07:57:33.372Z,23.60
2022-08-23T07:58:35.188Z,23.60
2022-08-23T07:59:38.120Z,23.50
2022-08-23T08:00:39.829Z,23.50
2022-08-23T08:01:43.934Z,23.50
2022-08-23T08:02:46.401Z,23.50
2022-08-23T08:03:50.878Z,23.50
2022-08-23T08:04:52.598Z,23.60
2022-08-23T08:05:57.584Z,23.60
2022-08-23T08:07:19.215Z,23.60
2022-08-23T08:08:22.900Z,23.60
2022-08-23T08:09:24.602Z,23.70
2022-08-23T08:10:26.713Z,23.70
2022-08-23T08:11:34.827Z,23.70
2022-08-23T08:12:37.242Z,23.70
2022-08-23T08:13:40.810Z,23.70
2022-08-23T08:14:42.912Z,23.70
2022-08-23T08:15:44.642Z,23.90
2022-08-23T08:16:51.206Z,24.00
2022-08-23T08:17:53.795Z,24.00
2022-08-23T08:18:59.586Z,23.90
2022-08-23T08:20:01.542Z,24.00
2022-08-23T08:21:05.708Z,24.10
2022-08-23T08:22:08.297Z,24.00
2022-08-23T08:23:10.049Z,24.00
2022-08-23T08:24:14.140Z,24.00
2022-08-23T08:25:16.122Z,24.00
2022-08-23T08:26:22.172Z,24.10
2022-08-23T08:27:25.054Z,24.10
2022-08-23T08:28:29.506Z,24.10
2022-08-23T08:29:31.408Z,24.30
2022-08-23T08:30:33.125Z,24.20
2022-08-23T08:31:36.402Z,24.20
2022-08-23T08:32:46.692Z,24.30
2022-08-23T08:33:53.244Z,24.30
2022-08-23T08:34:55.380Z,24.40
2022-08-23T08:36:00.972Z,24.40
2022-08-23T08:37:04.825Z,24.30
2022-08-23T08:38:07.851Z,24.40
2022-08-23T08:39:13.187Z,24.30
2022-08-23T08:40:20.915Z,24.40
2022-08-23T08:41:40.935Z,24.40
2022-08-23T08:43:01.276Z,24.50
2022-08-23T08:44:19.745Z,24.50
2022-08-23T08:45:33.001Z,24.60
2022-08-23T08:46:45.184Z,24.60
2022-08-23T08:47:53.416Z,24.60
2022-08-23T08:48:59.465Z,24.70
2022-08-23T08:50:26.516Z,24.70
2022-08-23T08:51:42.582Z,24.80
2022-08-23T08:53:04.392Z,24.80
2022-08-23T08:54:27.488Z,24.80
2022-08-23T08:55:34.025Z,24.80
2022-08-23T08:56:39.650Z,24.80
2022-08-23T08:57:45.061Z,24.90
2022-08-23T08:58:59.096Z,24.90
2022-08-23T09:00:06.763Z,24.90
2022-08-23T09:01:08.930Z,25.00
2022-08-23T09:02:31.837Z,25.00
2022-08-23T09:03:36.117Z,25.20
2022-08-23T09:04:38.176Z,25.10
2022-08-23T09:05:56.389Z,25.20
2022-08-23T09:07:11.232Z,25.20
2022-08-23T09:08:40.679Z,25.30
2022-08-23T09:10:04.095Z,25.40
2022-08-23T09:11:15.968Z,25.40
2022-08-23T09:12:32.520Z,25.60
2022-08-23T09:13:56.301Z,25.50
2022-08-23T09:15:04.358Z,25.60
2022-08-23T09:16:09.255Z,25.60
2022-08-23T09:17:27.273Z,25.70
2022-08-23T09:18:34.520Z,25.70
2022-08-23T09:19:39.210Z,25.80
2022-08-23T09:20:43.227Z,25.80
2022-08-23T09:21:54.392Z,25.80
2022-08-23T09:23:22.255Z,25.90
2022-08-23T09:24:24.623Z,25.90
2022-08-23T09:25:26.440Z,25.90
2022-08-23T09:26:30.743Z,26.00
2022-08-23T09:27:33.036Z,26.00
2022-08-23T09:28:38.807Z,26.00
2022-08-23T09:30:01.353Z,26.20
2022-08-23T09:31:08.279Z,26.10
2022-08-23T09:32:27.461Z,26.10
2022-08-23T09:33:41.526Z,26.20
2022-08-23T09:34:46.116Z,26.20
2022-08-23T09:36:10.750Z,26.20
2022-08-23T09:37:20.866Z,26.30
2022-08-23T09:38:23.329Z,26.30
2022-08-23T09:39:33.185Z,26.30
2022-08-23T09:40:41.269Z,26.50
2022-08-23T09:41:43.791Z,26.40
2022-08-23T09:42:47.382Z,26.40
2022-08-23T09:43:50.176Z,26.40
2022-08-23T09:44:52.245Z,26.40
2022-08-23T09:45:57.583Z,26.50
2022-08-23T09:47:16.751Z,26.50
2022-08-23T09:48:45.217Z,26.50
2022-08-23T09:49:48.463Z,26.60
2022-08-23T09:50:54.828Z,26.60
2022-08-23T09:52:00.958Z,26.70
2022-08-23T09:53:15.408Z,26.70
2022-08-23T09:54:23.110Z,26.70
2022-08-23T09:55:31.696Z,26.80
2022-08-23T09:56:41.521Z,26.80
2022-08-23T09:57:48.046Z,26.80
2022-08-23T09:58:53.750Z,26.90
2022-08-23T10:00:00.507Z,26.90
2022-08-23T10:01:14.265Z,26.90
2022-08-23T10:02:27.380Z,26.90
2022-08-23T10:03:30.287Z,26.90
2022-08-23T10:04:43.877Z,26.90
2022-08-23T10:05:51.717Z,27.00
2022-08-23T10:06:55.776Z,27.10
2022-08-23T10:08:02.517Z,26.90
2022-08-23T10:09:07.397Z,27.00
2022-08-23T10:10:38.406Z,27.00
2022-08-23T10:11:45.383Z,27.00
2022-08-23T10:12:47.460Z,27.00
2022-08-23T10:13:51.915Z,27.00
2022-08-23T10:14:54.695Z,27.00
2022-08-23T10:16:02.290Z,27.00
2022-08-23T10:17:34.265Z,27.00
2022-08-23T10:18:46.546Z,27.10
2022-08-23T10:20:01.549Z,27.10
2022-08-23T10:21:21.158Z,27.20
2022-08-23T10:22:28.681Z,27.20
2022-08-23T10:23:43.756Z,27.30
2022-08-23T10:24:55.410Z,27.30
2022-08-23T10:26:01.330Z,27.30
2022-08-23T10:27:53.424Z,27.30
2022-08-23T10:29:35.233Z,27.30
2022-08-23T10:31:02.566Z,27.30
2022-08-23T10:32:25.658Z,27.30
2022-08-23T10:33:45.830Z,27.30
2022-08-23T10:34:51.048Z,27.30
2022-08-23T10:36:03.369Z,27.30
2022-08-23T10:37:43.709Z,27.30
2022-08-23T10:38:57.953Z,27.30
2022-08-23T10:40:17.420Z,27.40
2022-08-23T10:41:40.588Z,27.40
2022-08-23T10:43:13.755Z,27.50
2022-08-23T10:44:24.567Z,27.50
2022-08-23T10:45:35.309Z,27.60
2022-08-23T10:46:44.874Z,27.60
2022-08-23T10:48:12.943Z,27.70
2022-08-23T10:49:17.091Z,27.70
2022-08-23T10:50:20.805Z,27.80
2022-08-23T10:51:40.497Z,27.80
2022-08-23T10:52:56.558Z,27.90
2022-08-23T10:54:10.299Z,27.90
2022-08-23T10:55:35.407Z,28.00
2022-08-23T10:56:43.018Z,28.00
2022-08-23T10:57:53.756Z,28.10
2022-08-23T10:59:03.442Z,28.10
2022-08-23T11:00:17.202Z,28.00
2022-08-23T11:01:26.568Z,28.00
2022-08-23T11:02:51.494Z,28.10
2022-08-23T11:04:27.250Z,28.10
2022-08-23T11:05:32.845Z,28.10
2022-08-23T11:06:37.699Z,28.10
2022-08-23T11:07:41.598Z,28.10
2022-08-23T11:08:47.829Z,28.10
2022-08-23T11:09:58.754Z,28.10
2022-08-23T11:11:01.791Z,28.10
2022-08-23T11:12:11.086Z,28.10
2022-08-23T11:13:12.964Z,28.20
2022-08-23T11:14:33.543Z,28.20
2022-08-23T11:15:59.044Z,28.20
2022-08-23T11:17:10.606Z,28.30
2022-08-23T11:18:37.477Z,28.30
2022-08-23T11:19:56.238Z,28.30
2022-08-23T11:21:03.164Z,28.40
2022-08-23T11:22:29.586Z,28.40
2022-08-23T11:23:55.871Z,28.40
2022-08-23T11:25:00.115Z,28.50
2022-08-23T11:26:04.914Z,28.50
2022-08-23T11:27:07.633Z,28.60
2022-08-23T11:28:30.518Z,28.60
2022-08-23T11:29:33.048Z,28.60
2022-08-23T11:30:50.201Z,28.70
2022-08-23T11:32:25.042Z,28.70
2022-08-23T11:33:36.965Z,28.80
2022-08-23T11:34:51.138Z,28.80
2022-08-23T11:36:17.937Z,28.90
2022-08-23T11:37:19.868Z,28.90
2022-08-23T11:38:47.924Z,28.90
2022-08-23T11:39:58.874Z,28.90
2022-08-23T11:41:11.230Z,29.00
2022-08-23T11:42:19.195Z,29.00
2022-08-23T11:43:27.707Z,29.00
2022-08-23T11:44:41.578Z,29.10
2022-08-23T11:45:46.803Z,29.20
2022-08-23T11:46:55.467Z,29.20
2022-08-23T11:48:19.341Z,29.20
2022-08-23T11:49:30.754Z,29.30
2022-08-23T11:50:41.561Z,29.30
2022-08-23T11:52:03.356Z,29.30
2022-08-23T11:53:39.024Z,29.30
2022-08-23T11:54:52.808Z,29.40
2022-08-23T11:56:16.119Z,29.40
2022-08-23T11:57:55.406Z,29.40
2022-08-23T11:59:41.648Z,29.40
2022-08-23T12:01:07.604Z,29.50
2022-08-23T12:02:34.691Z,29.60
2022-08-23T12:03:56.962Z,29.50
2022-08-23T12:05:07.557Z,29.50
2022-08-23T12:06:32.210Z,29.50
2022-08-23T12:08:01.179Z,29.50
2022-08-23T12:09:13.851Z,29.60
2022-08-23T12:10:37.336Z,29.60
2022-08-23T12:12:01.230Z,29.60
2022-08-23T12:13:18.572Z,29.60
2022-08-23T12:14:32.338Z,29.60
2022-08-23T12:16:05.305Z,29.70
2022-08-23T12:17:16.900Z,29.80
2022-08-23T12:18:24.121Z,29.80
2022-08-23T12:19:51.308Z,29.80
2022-08-23T12:20:59.183Z,30.00
2022-08-23T12:22:13.265Z,29.90
2022-08-23T12:23:19.101Z,29.90
2022-08-23T12:24:40.186Z,30.00
2022-08-23T12:25:43.223Z,30.00
2022-08-23T12:26:59.094Z,30.00
2022-08-23T12:28:33.547Z,30.10
2022-08-23T12:30:03.309Z,30.20
2022-08-23T12:31:18.820Z,30.20
2022-08-23T12:32:39.353Z,30.30
2022-08-23T12:33:54.069Z,30.30
2022-08-23T12:35:04.479Z,30.40
2022-08-23T12:36:42.239Z,30.50
2022-08-23T12:37:56.259Z,30.50
2022-08-23T12:39:09.241Z,30.50
2022-08-23T12:40:25.854Z,30.50
2022-08-23T12:41:32.946Z,30.40
2022-08-23T12:42:38.437Z,30.40
2022-08-23T12:43:59.615Z,30.50
2022-08-23T12:45:23.083Z,30.50
2022-08-23T12:46:33.424Z,30.50
2022-08-23T12:47:38.546Z,30.60
2022-08-23T12:48:47.348Z,30.70
2022-08-23T12:50:12.377Z,30.70
2022-08-23T12:51:14.358Z,30.80
2022-08-23T12:52:16.239Z,30.80
2022-08-23T12:53:33.134Z,30.90
2022-08-23T12:54:46.503Z,30.90
2022-08-23T12:55:51.391Z,30.90
2022-08-23T12:56:54.859Z,31.00
2022-08-23T12:57:58.173Z,31.00
2022-08-23T12:59:04.845Z,31.10
2022-08-23T13:00:24.576Z,31.10
2022-08-23T13:01:31.353Z,31.20
2022-08-23T13:02:37.357Z,31.20
2022-08-23T13:03:47.430Z,31.20
2022-08-23T13:04:49.334Z,31.20
2022-08-23T13:05:57.909Z,31.30
2022-08-23T13:07:08.223Z,31.30
2022-08-23T13:08:27.484Z,31.40
2022-08-23T13:09:40.409Z,31.50
2022-08-23T13:10:46.378Z,31.60
2022-08-23T13:11:49.176Z,31.60
2022-08-23T13:12:53.132Z,31.70
2022-08-23T13:13:56.463Z,31.70
2022-08-23T13:15:01.876Z,31.80
2022-08-23T13:16:37.984Z,31.90
2022-08-23T13:17:39.895Z,32.00
2022-08-23T13:18:43.326Z,32.10
2022-08-23T13:19:47.502Z,32.10
2022-08-23T13:20:49.262Z,32.10
2022-08-23T13:22:26.154Z,32.10
2022-08-23T13:23:31.045Z,32.20
2022-08-23T13:24:45.337Z,32.20
2022-08-23T13:25:47.158Z,32.30
2022-08-23T13:26:49.459Z,32.40
2022-08-23T13:27:55.520Z,32.40
2022-08-23T13:29:08.465Z,32.50
2022-08-23T13:30:12.872Z,32.50
2022-08-23T13:31:14.701Z,32.50
2022-08-23T13:32:30.437Z,32.50
2022-08-23T13:33:32.638Z,32.40
2022-08-23T13:34:48.746Z,32.30
2022-08-23T13:36:13.038Z,32.30
2022-08-23T13:37:30.316Z,32.30
2022-08-23T13:38:33.392Z,32.40
2022-08-23T13:39:37.497Z,32.40
2022-08-23T13:40:58.030Z,32.30
2022-08-23T13:42:00.094Z,32.40
2022-08-23T13:43:05.585Z,32.40
2022-08-23T13:44:14.597Z,32.40
2022-08-23T13:45:30.843Z,32.40
2022-08-23T13:46:36.502Z,32.20
2022-08-23T13:47:38.891Z,32.10
2022-08-23T13:48:56.618Z,31.90
2022-08-23T13:50:00.051Z,31.80
2022-08-23T13:51:38.772Z,31.70
2022-08-23T13:53:03.210Z,31.50
2022-08-23T13:54:17.066Z,31.40
2022-08-23T13:55:18.806Z,31.40
2022-08-23T13:56:21.346Z,31.40
2022-08-23T13:57:27.369Z,31.60
2022-08-23T13:58:34.498Z,31.70
2022-08-23T13:59:39.779Z,31.90
2022-08-23T14:00:45.739Z,32.20
2022-08-23T14:02:01.552Z,32.40
2022-08-23T14:03:05.163Z,32.50
2022-08-23T14:04:07.783Z,32.70
2022-08-23T14:05:10.136Z,32.80
2022-08-23T14:06:12.090Z,32.90
2022-08-23T14:07:15.124Z,33.10
2022-08-23T14:08:17.250Z,33.20
2022-08-23T14:09:19.737Z,33.30
2022-08-23T14:10:24.291Z,33.40
2022-08-23T14:11:26.219Z,33.50
2022-08-23T14:12:31.576Z,33.60
2022-08-23T14:13:36.709Z,33.60
2022-08-23T14:14:39.062Z,33.70
2022-08-23T14:16:32.217Z,33.80
2022-08-23T14:17:05.948Z,33.80
2022-08-23T14:18:12.754Z,33.90
2022-08-23T14:19:18.058Z,34.00
2022-08-23T14:20:46.447Z,34.10
2022-08-23T14:21:48.423Z,34.10
2022-08-23T14:22:50.198Z,34.10
2022-08-23T14:23:51.954Z,34.10
2022-08-23T14:24:53.627Z,34.10
2022-08-23T14:25:56.798Z,34.10
2022-08-23T14:26:58.945Z,34.10
2022-08-23T14:28:00.677Z,34.10
2022-08-23T14:29:02.751Z,34.10
2022-08-23T14:30:05.813Z,34.10
2022-08-23T14:31:07.576Z,34.10
2022-08-23T14:32:09.362Z,34.10
2022-08-23T14:33:11.144Z,34.10
2022-08-23T14:34:13.121Z,34.10